Date,TemperatureHighF,TemperatureAvgF,TemperatureLowF,DewpointHighF,DewpointAvgF,DewpointLowF,HumidityHigh,HumidityAvg,HumidityLow,PressureMaxIn,PressureMinIn,WindSpeedMaxMPH,WindSpeedAvgMPH,GustSpeedMaxMPH,PrecipitationSumIn
2013-1-1,74.4,65.9,59.3,60.6,57.9,56.0,90,76,61,30.06,30.02,2,0,10,0.00
2013-1-2,73.3,63.8,57.5,67.5,60.9,55.7,96,90,81,30.09,29.98,3,0,7,0.00
2013-1-3,61.7,56.0,48.6,60.3,54.8,47.5,97,95,90,30.26,30.07,1,0,2,0.12
2013-1-4,55.6,50.7,46.5,52.0,48.2,44.9,97,91,86,30.34,30.24,1,0,3,0.00
2013-1-5,62.3,52.5,42.2,54.4,47.3,38.2,92,83,74,30.36,30.26,0,0,4,0.00
2013-1-6,61.0,55.6,49.8,55.9,53.4,48.7,97,92,83,30.27,30.13,1,0,4,0.72
2013-1-7,62.2,53.5,45.8,54.9,49.7,42.8,97,87,75,30.31,30.19,2,0,4,0.00
2013-1-8,70.3,61.2,56.8,65.9,58.7,53.9,96,92,85,30.30,30.20,2,0,3,0.00
2013-1-9,62.3,62.0,61.4,61.7,61.2,60.5,98,97,97,30.26,30.25,1,0,1,0.00
2013-1-11,81.0,70.7,59.1,68.8,65.4,58.5,99,84,58,30.26,30.16,2,0,6,0.01
2013-1-12,81.7,68.5,59.7,69.1,63.6,58.8,99,86,55,30.22,30.11,3,0,5,0.01
2013-1-13,79.2,67.8,59.6,67.2,63.1,58.7,99,86,60,30.19,30.08,2,0,5,0.00
2013-1-14,80.9,68.8,59.1,67.5,63.2,58.2,98,84,59,30.21,30.12,3,0,6,0.01
2013-1-15,80.3,69.9,62.2,68.2,64.7,60.6,98,85,61,30.17,30.06,2,0,6,0.00
2013-1-16,80.8,70.9,64.3,68.2,64.7,61.3,96,82,59,30.10,29.99,2,0,9,0.00
2013-1-17,74.2,60.1,44.0,66.1,55.0,36.3,96,84,61,30.16,29.92,8,3,13,0.01
2013-1-18,56.8,49.6,42.5,47.0,42.2,35.6,85,76,66,30.41,30.17,4,1,13,0.00
2013-1-19,62.1,54.3,45.5,55.5,50.0,41.3,94,85,78,30.38,30.22,2,0,7,0.00
2013-1-20,72.6,60.4,52.6,55.7,52.7,49.6,96,78,49,30.23,30.08,1,0,1,0.00
2013-1-21,69.0,58.1,49.2,53.1,50.1,45.2,97,77,54,30.14,30.03,1,0,3,0.00
2013-1-22,62.7,53.6,46.0,45.7,36.3,31.8,69,53,35,30.32,30.10,2,0,8,0.00
2013-1-23,63.7,52.0,43.7,44.0,39.5,31.1,83,64,40,30.33,30.29,1,0,3,0.00
2013-1-24,71.6,58.7,47.8,54.5,49.0,41.6,85,71,51,30.32,30.20,4,1,7,0.00
2013-1-25,73.6,61.5,54.1,58.1,52.6,48.3,92,75,43,30.34,30.17,3,0,10,0.00
2013-1-26,75.1,63.3,52.8,63.0,57.5,50.7,97,82,66,30.25,30.16,2,0,6,0.00
2013-1-27,68.5,61.7,58.3,59.1,56.7,54.2,93,84,69,30.39,30.23,2,0,8,0.00
2013-1-28,78.6,65.6,54.9,64.2,60.4,53.7,98,84,60,30.38,30.26,4,1,5,0.00
2013-1-29,80.7,68.8,59.6,68.3,64.4,58.7,99,87,65,30.28,30.11,4,1,7,0.00
2013-1-30,82.3,73.2,66.5,67.4,65.5,62.7,94,78,60,30.12,29.79,8,2,23,0.00
2013-2-1,58.7,53.2,47.2,40.3,34.9,27.7,58,50,42,30.34,30.27,1,0,4,0.00
2013-2-2,67.0,49.5,35.8,43.8,33.9,25.7,92,57,31,30.37,30.17,2,0,6,0.00
2013-2-3,66.3,53.9,44.1,43.6,38.4,31.8,94,59,28,30.20,30.05,3,0,6,0.00
2013-2-4,63.9,54.1,41.8,47.5,42.2,35.7,93,67,37,30.15,30.07,1,0,6,0.00
2013-2-5,69.7,56.7,44.1,53.7,47.0,40.9,92,72,49,30.12,30.01,1,0,6,0.00
2013-2-6,69.5,62.1,57.2,59.6,56.4,51.4,92,82,69,30.16,30.05,1,0,4,0.00
2013-2-7,75.5,66.5,60.4,65.0,62.1,57.9,97,86,68,30.12,29.82,4,1,7,0.02
2013-2-8,69.5,61.5,55.9,65.0,56.1,52.8,94,83,67,30.10,29.84,4,1,9,0.00
2013-2-9,64.2,55.7,48.2,52.9,48.4,42.9,92,78,54,30.27,30.10,2,0,5,0.00
2013-2-10,73.5,62.9,50.5,59.9,55.2,48.4,95,77,57,30.32,30.18,6,2,11,0.00
2013-2-11,80.9,70.4,62.4,65.2,62.3,58.8,91,77,58,30.20,30.07,4,1,10,0.00
2013-2-12,81.2,69.9,63.5,68.8,65.2,61.4,98,86,60,30.09,29.87,6,1,9,0.00
2013-2-13,75.3,70.4,60.4,72.4,65.6,52.3,97,85,56,29.94,29.80,5,1,10,0.29
2013-2-14,60.9,52.7,47.7,56.1,49.3,44.3,95,88,82,30.10,29.93,1,0,4,0.16
2013-2-15,65.2,51.6,42.1,50.0,45.3,39.8,94,80,55,30.12,29.99,1,0,4,0.00
2013-2-16,57.7,48.6,40.5,48.4,42.9,28.9,96,81,59,30.16,29.93,6,1,13,0.04
2013-2-17,52.8,42.3,33.5,28.5,21.6,14.4,70,46,22,30.38,30.15,3,0,11,0.00
2013-2-18,62.2,46.0,29.5,43.6,34.2,23.6,90,66,41,30.43,30.24,4,0,5,0.00
2013-2-19,58.2,49.7,44.5,51.7,46.6,42.1,94,89,79,30.25,30.16,2,0,4,0.00
2013-2-22,74.1,71.0,68.6,68.1,67.3,66.5,93,88,80,30.04,30.00,1,0,4,0.00
2013-2-23,81.6,71.6,62.2,68.8,66.0,60.8,97,84,60,30.00,29.85,7,1,17,0.38
2013-2-24,74.8,64.3,56.6,63.3,57.3,40.1,100,81,31,30.02,29.86,3,0,5,0.22
2013-2-25,66.7,61.7,57.8,66.4,60.6,55.8,99,96,90,29.96,29.81,5,1,12,1.52
2013-2-26,78.2,69.1,61.3,68.6,62.3,56.0,98,81,49,29.83,29.67,8,3,16,0.51
2013-2-27,70.1,60.5,53.7,55.8,49.0,45.3,84,67,44,29.99,29.84,6,1,15,0.00
2013-2-28,69.3,59.1,50.5,49.1,44.6,37.0,84,61,42,29.99,29.85,7,1,13,0.00
2013-3-1,59.8,52.8,47.3,40.9,38.6,35.4,68,59,46,30.02,29.91,2,1,6,0.00
2013-3-2,53.3,46.3,40.2,38.2,34.7,31.3,82,65,46,30.05,29.94,7,2,13,0.00
2013-3-3,46.4,41.7,37.6,33.3,31.3,29.2,81,67,52,30.15,30.00,5,2,14,0.00
2013-3-4,64.3,48.6,36.2,44.5,32.7,26.0,79,58,31,30.24,30.11,1,0,5,0.00
2013-3-5,75.0,59.8,41.6,57.9,47.5,38.6,90,66,37,30.19,29.91,5,2,14,0.00
2013-3-6,65.3,52.5,44.8,61.0,38.2,31.2,88,60,36,30.15,29.87,7,3,14,0.01
2013-3-7,64.7,48.9,37.3,44.4,37.2,31.7,91,66,38,30.25,30.14,2,0,4,0.00
2013-3-8,68.6,52.5,41.4,51.6,44.5,39.8,96,77,39,30.25,30.17,1,0,4,0.00
2013-3-9,67.4,54.2,42.7,51.4,47.4,41.4,97,80,51,30.28,30.19,1,0,4,0.00
2013-3-10,74.3,61.8,49.7,58.9,54.0,48.3,98,78,54,30.24,30.14,6,1,6,0.00
2013-3-11,76.0,66.0,54.6,61.6,57.9,52.9,96,76,57,30.15,29.91,4,1,11,0.01
2013-3-12,68.5,64.4,56.0,66.1,59.5,48.5,98,85,58,30.04,29.84,2,1,6,0.09
2013-3-13,70.8,59.4,49.3,48.5,40.3,35.4,78,52,29,30.20,30.03,3,0,6,0.00
2013-3-14,62.8,51.3,42.3,39.4,33.8,28.3,83,53,32,30.32,30.18,1,0,7,0.00
2013-3-15,73.0,55.9,41.6,48.3,40.2,31.1,92,60,32,30.30,30.13,1,0,5,0.00
2013-3-16,80.0,66.5,51.4,54.1,49.9,42.4,88,58,36,30.17,30.00,4,1,10,0.00
2013-3-17,76.9,64.5,50.2,56.9,50.6,45.8,94,63,37,30.14,29.99,3,1,10,0.00
2013-3-18,80.2,68.9,60.9,65.1,61.3,55.4,92,78,58,30.06,29.87,3,0,5,0.00
2013-3-19,80.7,69.4,60.9,64.7,60.6,56.7,94,75,52,30.03,29.89,7,0,10,0.03
2013-3-20,65.7,59.7,51.2,60.0,53.8,49.8,96,82,66,30.03,29.85,2,0,7,0.18
2013-3-21,67.8,55.2,45.1,51.5,38.4,31.1,96,58,27,29.97,29.87,3,0,6,0.01
2013-3-22,65.7,54.2,47.8,44.0,38.5,34.9,71,56,41,30.08,29.95,2,0,5,0.00
2013-3-23,67.6,62.1,55.8,65.3,60.8,55.0,98,96,87,29.94,29.80,3,0,6,2.04
2013-3-24,83.9,71.1,61.1,73.0,66.4,60.7,99,87,57,29.83,29.53,6,2,15,0.28
2013-3-25,68.2,59.2,50.1,62.5,40.8,30.7,87,53,29,30.04,29.63,6,3,13,0.00
2013-3-26,56.1,48.4,40.5,33.5,30.7,26.7,62,51,38,30.27,30.04,6,2,16,0.00
2013-3-27,61.8,48.8,37.4,37.5,32.8,29.5,74,56,36,30.33,30.22,2,0,5,0.00
2013-3-28,68.8,54.6,44.1,44.1,38.1,31.4,83,57,25,30.32,30.21,1,0,4,0.00
2013-3-29,73.3,56.9,43.8,47.6,42.4,36.6,94,64,28,30.35,30.21,1,0,5,0.00
2013-3-30,78.5,61.7,45.2,55.0,47.1,41.6,92,64,29,30.28,30.11,3,0,6,0.00
2013-3-31,81.3,68.2,56.7,59.0,54.1,45.7,82,62,46,30.14,29.98,4,1,13,0.00
2013-4-1,81.3,69.8,61.7,67.3,62.5,58.0,93,79,57,30.01,29.89,5,0,7,0.01
2013-4-2,77.1,66.2,54.5,61.8,52.7,47.1,96,66,36,30.13,29.99,2,0,6,0.00
2013-4-3,79.8,65.1,55.5,64.5,59.7,53.3,98,85,53,30.12,30.03,3,0,9,0.24
2013-4-4,76.8,69.8,64.1,70.5,66.1,63.5,99,89,74,30.07,29.86,6,1,12,0.11
2013-4-5,67.5,59.0,54.3,64.8,57.3,51.7,97,94,90,30.04,29.82,0,0,5,0.28
2013-4-6,69.0,59.4,49.3,58.0,53.5,47.6,95,82,59,30.19,30.03,2,0,4,0.00
2013-4-7,75.7,65.8,56.8,64.0,58.8,55.8,98,80,56,30.21,30.10,4,1,9,0.00
2013-4-8,83.2,67.9,55.7,65.4,60.4,54.7,98,79,51,30.18,30.09,5,0,6,0.00
2013-4-9,81.6,70.5,60.0,68.3,63.6,59.1,98,81,56,30.21,30.10,5,1,7,0.00
2013-4-10,80.6,70.3,57.5,68.7,63.9,56.4,98,82,64,30.16,30.02,5,1,9,0.00
2013-4-11,87.1,75.2,68.9,74.7,70.4,67.1,97,86,62,30.01,29.82,4,1,11,0.13
2013-4-12,86.9,77.0,71.4,74.8,70.9,67.6,97,83,58,29.89,29.76,7,2,17,0.01
2013-4-13,84.1,71.5,60.5,69.0,56.5,49.3,90,62,36,30.03,29.88,1,0,5,0.00
2013-4-14,74.8,64.1,58.4,65.8,61.4,56.3,98,91,65,30.03,29.88,6,0,11,1.16
2013-4-15,85.9,70.2,61.4,70.0,65.0,60.8,100,85,55,30.13,29.83,2,0,10,0.00
2013-4-16,81.6,71.5,64.7,71.3,66.8,63.6,98,86,66,30.20,30.10,2,0,4,0.00
2013-4-17,77.2,70.3,63.8,70.5,66.6,62.9,99,89,75,30.19,30.11,1,0,4,0.01
2013-4-18,85.7,74.3,64.2,70.9,67.5,63.4,99,81,56,30.11,29.98,5,1,6,0.00
2013-4-19,88.5,78.0,69.4,74.6,71.5,66.3,95,81,58,30.02,29.88,5,1,11,0.01
2013-4-20,68.1,55.8,49.6,65.4,53.2,47.9,96,91,80,30.21,30.00,2,0,7,0.63
2013-4-21,70.2,63.7,55.1,63.0,58.9,51.8,94,85,73,30.22,30.12,3,1,7,0.03
2013-4-22,65.1,62.0,58.7,63.5,59.4,55.6,98,91,78,30.17,30.07,3,1,8,0.41
2013-4-23,71.1,63.2,55.6,60.1,57.4,53.8,96,82,64,30.18,30.08,1,0,5,0.00
2013-4-24,84.6,68.6,54.9,66.4,60.2,53.9,99,77,44,30.17,30.09,3,0,6,0.00
2013-4-25,86.7,73.7,61.2,69.4,65.3,60.1,97,77,52,30.22,30.11,2,0,4,0.00
2013-4-26,78.4,70.8,63.3,67.9,63.0,55.5,91,77,64,30.31,30.18,2,0,8,0.00
2013-4-27,81.0,71.1,61.9,65.0,62.0,58.8,96,75,47,30.27,30.17,3,0,14,0.00
2013-4-28,81.5,71.9,63.9,66.9,64.6,62.4,97,80,57,30.19,30.01,6,1,11,0.00
2013-4-29,82.1,72.1,64.5,69.6,66.3,63.6,97,83,64,30.04,29.93,4,0,11,0.19
2013-4-30,85.8,71.0,63.4,70.5,66.0,62.7,99,86,55,30.06,29.95,1,0,5,0.01
2013-5-1,75.7,69.0,64.6,70.0,65.7,62.7,97,89,82,30.08,29.99,2,0,7,0.00
2013-5-2,69.9,68.2,66.4,69.3,67.2,64.9,98,97,90,30.05,29.92,3,0,6,2.49
2013-5-3,66.7,65.5,64.4,66.1,64.9,63.5,99,98,97,29.93,29.86,4,1,6,1.50
2013-5-4,69.4,67.8,65.9,68.8,67.1,65.3,98,98,97,29.81,29.70,4,1,11,1.14
2013-5-5,77.8,67.4,59.2,69.2,59.4,52.7,98,78,42,29.90,29.73,5,1,10,0.00
2013-5-6,73.7,65.2,56.2,59.4,52.4,47.6,88,65,44,30.00,29.86,3,1,5,0.00
2013-5-7,78.0,67.3,57.7,62.7,57.5,53.0,88,72,51,30.03,29.92,4,1,12,0.00
2013-5-8,81.4,70.3,59.6,62.9,59.8,58.1,96,72,47,30.11,30.01,2,0,7,0.00
2013-5-9,86.7,73.8,63.9,67.5,63.0,59.8,96,72,44,30.15,30.07,1,0,7,0.00
2013-5-10,89.8,75.6,62.1,70.2,65.1,60.3,96,72,45,30.14,30.00,3,0,7,0.00
2013-5-11,88.5,75.1,67.8,73.3,68.8,64.9,96,82,57,30.07,29.93,5,1,9,0.26
2013-5-12,84.5,74.7,67.0,70.0,66.7,60.0,98,78,56,30.04,29.94,3,0,12,0.01
2013-5-13,79.3,70.7,61.2,60.8,50.8,44.9,74,51,31,30.16,30.01,1,0,5,0.00
2013-5-14,81.4,67.7,54.0,55.1,46.8,40.2,78,50,25,30.26,30.16,1,0,5,0.00
2013-5-15,86.9,71.4,57.1,62.5,57.6,54.4,97,66,37,30.24,30.09,1,0,6,0.00
2013-5-16,87.2,75.4,67.1,70.0,64.8,61.3,83,71,49,30.14,30.03,2,0,5,0.00
2013-5-17,88.1,75.7,65.4,70.0,66.1,58.9,94,74,41,30.13,30.05,2,0,5,0.00
2013-5-18,88.8,76.6,68.2,74.0,70.0,66.3,97,82,50,30.14,30.03,4,1,9,0.19
2013-5-19,87.0,76.3,68.8,75.9,71.0,67.9,98,85,62,30.11,30.00,5,0,11,0.10
2013-5-20,84.2,75.4,69.0,74.9,71.5,68.2,98,88,70,30.11,30.02,2,0,4,0.22
2013-5-21,83.4,73.8,69.2,75.1,70.7,67.6,99,90,71,30.07,29.96,2,0,5,0.13
2013-5-22,83.4,74.9,67.0,75.0,70.8,66.4,99,88,70,30.01,29.92,1,0,4,0.09
2013-5-23,92.0,79.7,69.3,73.7,70.9,67.6,98,77,51,29.99,29.90,1,0,5,0.00
2013-5-24,89.6,78.4,71.8,72.7,69.0,63.2,95,76,44,30.05,29.95,2,0,6,0.00
2013-6-2,87.9,82.3,75.8,77.9,76.0,75.0,99,82,70,30.01,29.90,5,1,10,0.02
2013-6-3,92.2,79.2,73.9,77.9,74.7,72.4,97,87,61,29.97,29.86,5,0,10,0.28
2013-6-4,86.8,78.7,73.6,77.5,74.8,72.4,97,88,71,30.03,29.94,1,0,5,0.01
2013-6-5,84.0,77.3,73.3,75.0,73.2,71.4,96,88,72,30.02,29.96,3,0,4,0.03
2013-6-6,77.2,74.0,70.6,75.8,73.1,70.0,99,97,94,29.87,29.55,6,2,15,1.56
2013-6-7,89.1,79.5,71.2,77.4,73.2,69.7,98,82,62,29.93,29.58,5,1,13,0.07
2013-6-8,93.6,81.1,74.0,78.9,74.3,72.3,97,81,52,30.09,29.93,3,0,6,0.00
2013-6-9,90.4,78.6,73.5,79.0,74.7,72.0,97,88,69,30.13,30.04,5,0,6,0.07
2013-6-10,90.8,81.4,74.6,78.0,75.5,73.4,98,83,62,30.11,30.00,2,0,7,0.01
2013-6-11,93.2,83.2,75.4,77.7,75.6,73.5,95,79,59,30.10,30.00,1,0,5,0.00
2013-6-12,96.6,85.5,74.8,79.3,75.8,73.3,96,75,50,30.07,29.96,1,0,5,0.00
2013-6-13,95.8,85.1,78.2,80.7,77.6,75.6,93,79,55,30.00,29.85,1,0,7,0.01
2013-6-14,91.1,83.0,79.0,80.0,77.6,76.2,93,84,67,29.89,29.79,2,0,6,0.23
2013-6-16,88.0,83.8,77.7,75.2,73.7,72.4,88,72,63,30.12,30.05,3,0,4,0.00
2013-6-17,94.0,83.3,76.5,81.8,76.4,73.9,95,81,54,30.10,29.96,4,0,6,0.00
2013-6-18,93.6,83.8,74.6,76.2,74.3,72.6,94,75,54,30.04,29.92,2,0,8,0.00
2013-6-19,94.9,83.4,75.7,78.0,75.1,72.7,95,77,51,30.05,29.93,2,0,5,0.01
2013-6-20,90.9,79.1,71.6,78.1,74.8,69.5,98,87,64,30.12,29.99,2,0,8,1.06
2013-6-21,87.2,78.2,73.7,77.9,74.5,72.5,98,89,70,30.14,30.06,0,0,4,0.04
2013-6-22,87.8,78.2,74.2,77.2,74.3,72.9,98,88,67,30.14,30.08,2,0,9,0.02
2013-6-23,89.6,80.3,72.7,81.6,74.9,71.8,99,84,63,30.17,30.10,3,0,7,0.02
2013-6-24,90.2,81.6,73.8,77.1,75.0,72.9,98,82,59,30.21,30.10,4,0,13,0.00
2013-6-25,93.0,81.8,74.9,79.5,74.9,70.3,97,81,52,30.19,30.06,2,0,4,0.01
2013-6-26,93.4,80.2,72.0,78.1,75.2,69.0,96,86,58,30.10,30.01,3,0,5,0.20
2013-6-27,93.4,82.4,72.7,79.7,75.2,70.7,94,80,60,30.03,29.89,2,0,5,0.00
2013-6-28,91.1,80.9,77.8,78.2,75.2,72.6,93,83,62,29.94,29.79,5,0,18,0.00
2013-6-29,86.7,80.7,77.4,78.2,75.8,74.0,94,85,70,29.83,29.75,2,1,11,0.04
2013-6-30,90.7,79.2,74.8,78.8,75.4,72.9,96,89,66,29.87,29.78,1,0,8,0.19
2013-7-1,83.5,76.5,72.9,77.5,73.9,72.0,98,92,80,30.03,29.83,3,0,12,0.57
2013-7-2,87.7,76.4,72.1,78.4,74.0,71.5,98,93,72,30.11,29.99,7,0,13,0.13
2013-7-3,88.6,78.3,71.9,79.0,75.1,71.0,97,90,70,30.15,30.08,3,0,12,0.30
2013-7-4,89.1,80.8,73.1,79.1,75.3,71.6,95,84,67,30.18,30.10,6,2,12,0.28
2013-7-7,80.7,78.3,76.6,74.3,73.9,73.5,91,87,81,30.16,30.12,0,0,4,0.00
2013-7-8,92.1,81.9,73.6,78.2,75.2,72.7,98,82,60,30.19,30.11,3,0,8,0.00
2013-7-9,92.3,82.2,74.6,77.5,74.6,72.4,98,80,54,30.19,30.08,2,0,7,0.00
2013-7-10,92.5,81.2,71.9,76.8,74.0,71.0,98,80,56,30.12,29.97,3,0,4,0.00
2013-7-11,94.8,81.6,74.9,78.7,74.9,72.6,95,81,51,30.03,29.88,4,0,12,0.03
2013-7-12,87.1,78.5,75.6,78.8,75.1,73.3,95,90,66,29.95,29.89,1,0,6,0.16
2013-7-13,88.4,77.2,71.1,79.4,74.3,70.5,98,91,69,30.02,29.91,1,0,5,0.79
2013-7-14,85.1,76.9,70.6,77.0,73.3,70.0,99,89,73,30.14,29.99,5,0,10,0.01
2013-7-15,85.8,77.5,71.9,80.5,75.0,71.0,99,92,76,30.18,30.11,5,0,10,0.57
2013-7-16,87.2,80.1,74.0,80.0,76.0,73.4,99,88,72,30.21,30.15,2,0,10,0.25
2013-7-17,89.3,81.4,74.9,78.2,75.4,71.6,98,83,62,30.22,30.11,2,0,6,0.00
2013-7-18,90.3,80.6,73.2,77.1,74.7,72.3,98,83,61,30.15,30.06,2,0,7,0.00
2013-7-19,90.2,78.9,74.6,77.5,74.2,71.8,97,86,63,30.11,30.06,3,0,6,0.72
2013-7-20,88.3,76.8,73.5,79.0,73.8,71.5,96,90,73,30.11,30.03,1,0,8,0.20
2013-7-21,77.6,74.8,73.0,74.2,72.9,71.6,97,94,88,30.10,30.03,1,0,5,0.02
2013-7-26,93.1,87.0,80.5,80.7,77.6,76.4,91,75,61,30.03,29.97,2,0,4,0.00
2013-7-27,93.6,79.7,72.1,79.9,75.8,70.3,98,89,62,30.01,29.88,5,0,17,3.23
2013-7-28,92.4,78.5,73.3,80.9,75.4,71.4,99,91,58,30.06,29.92,3,0,17,1.80
2013-7-29,94.9,82.7,73.7,79.6,75.3,72.2,97,80,53,30.16,30.03,2,0,17,0.00
2013-7-30,93.9,82.3,77.3,80.7,77.0,74.2,94,85,63,30.18,30.10,2,0,17,0.03
2013-7-31,93.0,78.5,72.7,80.9,75.7,71.9,98,92,63,30.14,30.05,3,0,17,1.61
2013-8-1,92.2,77.6,72.5,80.3,74.7,71.6,98,91,64,30.05,29.94,4,0,17,1.07
2013-8-2,93.1,79.5,72.9,80.1,75.0,72.3,99,88,56,30.05,29.95,3,0,17,0.00
2013-8-3,90.4,82.2,76.1,80.9,77.6,74.6,96,87,70,30.06,29.98,1,0,7,0.20
2013-8-4,95.8,85.0,77.7,79.9,77.7,75.6,96,80,54,30.06,29.94,1,0,7,0.00
2013-8-5,95.4,85.5,79.8,82.0,78.7,77.2,96,81,56,30.00,29.91,1,0,7,0.00
2013-8-6,90.8,83.5,78.1,80.1,78.3,77.2,97,85,67,30.00,29.91,3,0,8,0.00
2013-8-7,89.6,82.8,77.8,79.6,77.5,76.1,95,85,69,30.02,29.95,1,0,7,0.00
2013-8-8,88.8,81.5,75.0,81.4,77.5,72.3,98,88,69,30.07,29.97,4,0,7,0.91
2013-8-9,89.9,81.6,75.4,81.6,77.0,74.5,99,87,65,30.10,29.99,2,0,7,0.22
2013-8-10,94.7,82.4,75.6,79.6,76.9,74.8,98,85,59,30.15,30.07,2,0,7,0.00
2013-8-11,96.8,85.2,78.3,81.1,77.1,73.7,96,78,53,30.17,30.07,3,0,7,0.00
2013-8-12,98.0,85.6,77.2,81.4,77.8,75.4,96,79,55,30.14,30.00,1,0,7,0.85
2013-8-13,96.5,85.0,76.0,80.7,76.7,73.6,97,78,50,30.04,29.90,1,0,7,0.01
2013-8-14,96.7,83.7,71.9,80.4,76.9,70.4,98,81,53,30.01,29.87,5,0,7,1.83
2013-8-15,94.9,80.7,73.5,79.5,76.1,72.3,98,87,58,30.05,29.92,3,0,7,0.51
2013-8-16,88.2,77.7,72.6,78.4,75.1,72.0,99,92,69,30.07,29.96,2,0,9,0.66
2013-8-17,88.8,80.1,74.8,79.5,76.9,74.2,99,91,71,30.12,30.01,2,0,7,0.21
2013-8-18,86.2,78.5,74.6,81.1,76.5,73.8,99,94,76,30.14,30.06,3,0,7,0.03
2013-8-19,92.1,82.7,76.3,80.2,77.9,75.4,98,86,65,30.12,29.98,4,0,7,0.03
2013-8-20,92.2,83.0,75.2,79.5,76.9,74.3,98,83,63,30.14,30.03,4,0,7,0.00
2013-8-21,87.1,80.2,75.9,81.2,77.1,74.8,99,91,76,30.18,30.09,2,0,7,0.33
2013-8-22,78.0,76.3,74.7,75.8,74.7,73.7,98,95,93,30.07,30.03,0,0,7,0.62
2013-8-23,86.1,77.8,74.9,80.4,76.3,74.3,99,95,80,30.06,30.01,2,0,9,0.15
2013-8-24,83.5,78.1,73.6,79.0,75.7,73.1,99,92,82,30.16,30.03,0,0,7,0.01
2013-8-25,84.3,77.8,73.9,78.0,74.6,72.1,98,90,77,30.21,30.14,1,0,12,0.03
2013-8-26,86.1,78.8,72.3,78.5,74.6,71.4,98,87,72,30.20,30.08,1,0,7,0.02
2013-8-27,87.8,79.7,73.3,76.4,72.3,69.3,97,80,57,30.11,30.02,2,0,7,0.00
2013-8-28,92.7,82.9,72.8,74.2,71.7,70.1,94,71,53,30.07,29.97,2,0,7,0.00
2013-8-29,94.1,83.6,74.0,76.4,73.0,70.1,91,72,49,30.03,29.91,1,0,7,0.00
2013-8-30,96.1,83.6,76.6,79.2,75.6,72.5,95,79,49,29.97,29.86,1,0,7,0.01
2013-8-31,95.5,79.2,72.4,80.4,74.8,70.0,98,88,52,29.97,29.87,9,0,9,0.50
2013-9-1,93.1,80.9,74.2,78.4,75.5,73.4,98,85,58,29.99,29.88,2,0,10,0.07
2013-9-2,93.1,81.6,74.8,80.7,75.8,73.3,96,84,59,30.00,29.89,1,0,7,0.04
2013-9-3,92.6,83.4,76.2,79.0,76.9,74.8,96,82,62,30.00,29.90,1,0,7,0.00
2013-9-4,96.3,83.7,76.8,80.4,76.3,72.9,97,80,52,30.09,29.98,2,0,7,0.00
2013-9-5,94.9,81.6,76.4,80.0,76.5,73.6,94,85,59,30.11,30.01,1,0,7,0.10
2013-9-6,91.0,78.9,74.4,79.0,75.7,72.9,98,90,65,30.07,29.99,1,0,7,0.07
2013-9-7,89.3,79.3,72.0,76.5,73.2,71.0,98,83,60,30.05,29.96,0,0,7,0.01
2013-9-8,88.7,79.2,71.4,75.0,71.5,69.0,98,79,53,30.00,29.92,0,0,7,0.00
2013-9-9,89.2,79.5,71.7,76.2,71.8,70.0,97,79,56,30.08,29.97,2,0,7,0.00
2013-9-10,88.7,80.0,72.9,75.7,72.4,70.2,96,79,59,30.16,30.05,2,0,10,0.00
2013-9-11,88.4,79.9,73.0,77.8,74.2,71.3,97,83,65,30.14,30.05,1,0,7,0.00
2013-9-12,90.8,79.9,73.2,77.9,74.4,72.3,98,84,60,30.06,29.91,1,0,7,0.00
2013-9-13,94.5,82.8,73.3,76.9,73.7,71.6,97,76,48,29.92,29.78,1,0,7,0.00
2013-9-14,94.5,81.8,75.6,78.7,74.9,72.8,97,81,53,30.01,29.82,1,0,7,0.07
2013-9-15,91.9,81.7,73.8,78.8,75.3,72.3,98,82,60,30.10,29.99,3,0,11,0.00
2013-9-16,90.9,81.5,75.0,78.3,76.1,74.1,98,84,63,30.11,30.01,2,0,7,0.00
2013-9-17,85.5,78.2,73.9,79.5,75.0,73.0,98,91,73,30.12,30.02,1,0,7,0.33
2013-9-18,81.6,75.4,72.7,75.8,72.8,70.4,99,92,78,30.13,30.04,2,0,9,2.91
2013-9-19,83.0,76.4,72.2,78.9,73.2,70.7,96,90,77,30.11,30.03,2,0,7,0.15
2013-9-20,84.9,76.0,69.2,74.1,71.0,68.3,98,85,67,30.07,29.95,1,0,7,0.00
2013-9-21,89.7,78.0,68.6,75.7,71.3,67.7,99,82,57,29.97,29.76,1,0,7,0.00
2013-9-22,82.9,77.0,73.5,76.3,73.7,71.7,96,90,79,29.86,29.75,3,0,7,0.12
2013-9-23,82.3,76.5,72.5,76.6,73.8,71.1,98,92,82,29.97,29.84,0,0,7,0.01
2013-9-24,82.6,76.5,74.0,77.6,74.7,72.7,99,94,83,29.97,29.83,0,0,7,0.36
2013-9-25,84.5,77.7,74.7,77.7,75.1,73.6,98,92,80,29.83,29.75,1,0,7,0.01
2013-9-26,78.2,74.4,69.5,75.2,72.6,67.8,98,94,86,29.92,29.74,0,0,7,0.01
2013-9-27,79.7,73.2,66.7,73.0,69.3,65.2,95,88,77,30.01,29.89,1,0,7,0.00
2013-9-28,77.1,73.5,70.6,71.3,69.7,67.5,96,88,76,30.09,29.98,1,0,7,0.03
2013-9-29,81.8,74.5,67.8,72.8,69.5,66.1,95,85,71,30.04,29.97,1,0,11,0.00
2013-9-30,80.8,73.7,67.8,71.5,67.5,64.7,98,82,66,30.06,29.95,0,0,7,0.00
2013-10-1,78.6,71.4,67.0,69.5,66.1,64.3,94,84,68,30.11,30.03,0,0,7,0.01
2013-10-2,81.1,72.3,63.5,70.6,67.2,62.6,98,85,67,30.12,30.06,0,0,7,0.00
2013-10-3,83.9,75.4,67.8,75.8,71.9,66.9,99,90,75,30.11,30.03,1,0,7,0.00
2013-10-4,86.0,77.9,71.5,77.2,74.0,70.9,100,89,68,30.12,30.04,0,0,7,0.01
2013-10-5,85.1,77.0,70.8,76.6,73.3,70.2,99,89,73,30.09,30.01,1,0,7,0.00
2013-10-6,84.1,77.2,72.2,79.2,74.9,71.6,99,93,79,30.02,29.88,2,0,7,0.46
2013-10-7,87.2,77.3,72.7,78.3,74.2,71.8,98,90,70,29.88,29.76,4,0,7,0.00
2013-10-8,80.4,72.3,65.6,77.1,71.3,64.4,99,97,87,30.02,29.79,1,0,7,0.95
2013-10-9,74.5,64.8,60.8,67.2,62.8,60.1,100,94,78,30.11,30.01,0,0,7,0.01
2013-10-10,84.4,71.4,62.5,67.3,64.6,61.6,99,81,52,30.09,29.98,0,0,7,0.01
2013-10-11,85.2,72.3,63.5,67.5,65.0,62.7,99,80,52,30.06,29.94,1,0,7,0.01
2013-10-12,86.3,73.1,63.2,67.3,64.3,62.0,98,77,47,30.06,29.97,0,0,7,0.00
2013-10-13,87.2,72.2,63.4,71.7,66.0,62.1,97,83,51,30.11,30.02,0,0,7,0.00
2013-10-14,69.7,68.4,66.1,67.8,66.6,64.9,96,94,90,30.08,30.04,0,0,7,0.00
2013-10-15,70.0,68.4,66.9,68.5,67.4,66.3,98,97,92,30.03,29.96,0,0,7,0.16
2013-10-16,82.3,72.4,65.4,73.9,68.7,64.2,97,89,73,30.00,29.93,0,0,7,0.00
2013-10-17,88.8,75.2,66.1,73.8,69.9,65.5,99,85,57,30.00,29.90,1,0,7,0.01
2013-10-18,88.6,78.1,69.8,75.5,72.3,68.9,98,84,61,30.00,29.90,1,0,7,0.00
2013-10-19,88.9,78.3,72.1,76.5,73.9,71.2,97,87,65,29.96,29.86,2,0,7,0.16
2013-10-20,78.4,71.6,66.7,71.9,66.3,62.1,98,84,68,30.01,29.90,0,0,7,0.01
2013-10-21,81.9,74.0,68.9,75.9,71.3,67.2,97,91,81,30.04,29.96,0,0,7,0.00
2013-10-22,79.1,73.6,70.5,76.1,72.4,69.8,99,96,89,29.99,29.82,0,0,7,0.26
2013-10-23,76.2,68.1,62.3,69.7,59.5,48.6,98,77,48,30.05,29.83,2,0,7,0.20
2013-10-24,71.0,60.4,52.0,55.4,48.9,42.2,92,67,50,30.20,30.05,0,0,7,0.00
2013-10-25,74.5,61.9,52.6,56.8,52.3,47.0,96,73,51,30.28,30.18,0,0,7,0.00
2013-10-26,72.9,59.5,49.3,59.2,53.2,47.6,94,81,55,30.27,30.14,0,0,7,0.00
2013-10-27,75.3,60.0,48.7,55.4,50.8,42.7,98,75,34,30.19,30.10,1,0,7,0.01
2013-10-28,77.9,64.4,53.9,63.8,58.0,51.0,97,81,60,30.24,30.13,0,0,7,0.00
2013-10-29,77.4,67.0,59.2,68.3,62.7,58.1,98,87,64,30.30,30.21,0,0,7,0.00
2013-10-30,78.6,69.0,61.1,69.6,64.6,60.1,98,87,73,30.28,30.17,0,0,7,0.01
2013-10-31,84.1,74.1,66.8,72.0,68.5,63.8,98,84,62,30.18,30.00,2,0,7,0.01
2013-11-1,83.0,75.4,69.9,72.7,70.5,67.8,95,85,69,30.02,29.83,3,0,7,0.00
2013-11-2,75.9,67.0,58.4,73.0,64.0,57.1,98,90,65,29.98,29.78,2,0,9,1.88
2013-11-3,69.2,60.5,52.8,57.7,52.0,47.6,96,75,47,30.21,29.97,1,0,7,0.00
2013-11-4,71.7,63.2,54.5,63.9,58.4,50.9,96,85,73,30.28,30.19,2,0,11,0.14
2013-11-5,68.6,65.8,63.5,67.1,64.4,62.1,98,95,88,30.28,30.20,1,0,7,0.12
2013-11-6,78.3,69.0,65.2,72.0,67.5,64.6,98,95,81,30.20,30.10,0,0,7,0.35
2013-11-7,81.1,70.9,66.5,70.7,67.3,65.3,98,89,67,30.09,29.98,0,0,7,0.00
2013-11-8,69.1,60.0,51.2,64.7,52.0,45.6,86,75,67,30.22,30.04,1,0,7,0.00
2013-11-9,74.9,63.9,54.2,64.2,59.1,52.8,96,85,63,30.25,30.18,1,0,7,0.00
2013-11-10,75.1,64.9,58.4,65.9,61.5,57.0,99,90,70,30.24,30.14,0,0,7,0.00
2013-11-11,75.4,64.7,54.6,64.4,60.5,53.6,98,87,66,30.22,30.13,0,0,7,0.01
2013-11-12,75.9,67.3,60.8,65.6,60.6,49.4,96,80,56,30.17,30.04,1,0,7,0.00
2013-11-13,60.3,49.4,43.8,48.9,41.1,36.2,81,73,64,30.44,30.17,2,0,11,0.00
2013-11-14,65.0,53.9,42.5,58.3,49.7,36.6,95,86,76,30.40,30.24,1,0,7,0.00
2013-11-15,66.7,61.6,55.8,65.5,60.5,54.8,98,96,91,30.25,30.07,1,0,7,0.06
2013-11-16,75.4,67.5,60.1,68.7,64.7,59.2,100,91,72,30.20,30.10,0,0,7,0.01
2013-11-17,80.8,69.9,67.1,74.0,68.4,65.9,99,95,78,30.12,30.01,1,0,7,0.31
2013-11-18,78.7,73.1,68.9,74.2,71.5,68.3,99,95,85,30.00,29.90,1,0,7,0.26
2013-11-19,70.7,62.7,55.0,70.4,56.1,46.0,99,79,65,30.06,29.92,1,0,7,0.01
2013-11-20,69.4,64.1,60.6,65.1,61.2,57.5,98,91,84,30.20,30.04,1,0,7,0.03
2013-11-21,73.5,66.0,62.7,68.4,64.1,61.5,97,94,84,30.27,30.18,0,0,7,0.00
2013-11-22,78.1,69.0,63.7,71.2,65.6,62.5,99,90,70,30.27,30.15,4,0,13,0.00
2013-11-23,81.8,68.9,59.8,69.0,64.5,59.2,99,87,59,30.15,30.02,1,0,7,0.01
2013-11-24,64.1,56.5,51.7,60.6,48.7,41.1,89,75,61,30.36,30.09,2,0,7,0.00
2013-11-25,67.9,60.3,49.7,60.8,54.8,45.4,94,82,74,30.35,30.12,2,0,7,0.00
2013-11-26,75.1,70.0,65.4,72.8,67.6,60.2,98,92,81,30.12,29.70,4,0,9,1.16
2013-11-27,70.4,54.9,39.7,69.8,50.6,34.7,98,85,73,30.24,29.63,6,2,16,0.11
2013-11-28,55.0,41.8,32.3,45.8,36.2,27.7,92,80,70,30.43,30.24,1,0,7,0.00
2013-11-29,61.6,52.1,42.5,53.1,46.4,38.6,92,81,66,30.45,30.38,0,0,7,0.00
2013-11-30,59.2,55.7,53.7,56.0,53.1,49.6,94,91,85,30.41,30.26,1,0,7,0.00
2013-12-1,69.6,59.1,53.0,62.9,55.7,50.4,96,89,77,30.25,30.01,0,0,7,0.00
2013-12-2,70.2,58.8,52.5,59.3,55.1,51.1,97,88,64,30.00,29.84,1,0,7,0.00
2013-12-3,75.7,61.2,49.7,63.1,56.5,48.6,98,86,63,29.99,29.90,1,0,7,0.00
2013-12-4,79.8,66.8,57.0,69.4,63.4,55.9,98,90,68,30.11,29.97,0,0,7,0.00
2013-12-5,83.7,69.9,59.1,70.8,65.2,58.2,99,86,62,30.18,30.08,1,0,7,0.01
2013-12-6,83.0,72.1,64.4,71.4,67.4,63.2,98,86,64,30.17,30.10,2,0,7,0.01
2013-12-7,84.2,72.8,66.0,72.5,68.5,64.6,99,87,64,30.24,30.14,1,0,7,0.00
2013-12-8,69.7,65.4,63.1,66.3,63.9,62.0,98,95,88,30.27,30.16,0,0,7,0.00
2013-12-9,83.5,70.6,61.6,71.3,66.8,61.0,99,89,66,30.20,30.08,2,0,7,0.00
2013-12-10,78.4,67.7,53.3,71.0,64.4,44.1,97,90,71,30.27,30.04,3,0,11,0.25
2013-12-11,64.9,56.7,48.5,59.9,52.0,43.7,89,84,72,30.31,30.24,1,0,7,0.00
2013-12-12,64.8,55.4,44.8,51.1,41.9,32.8,90,64,32,30.39,30.26,0,0,7,0.00
2013-12-13,65.5,53.9,44.3,56.9,49.7,42.0,96,86,73,30.36,30.16,0,0,7,0.00
2013-12-14,55.0,54.3,53.9,54.2,53.3,52.8,97,97,96,30.15,30.11,0,0,7,0.00
2013-12-15,65.6,57.9,48.2,61.1,54.5,43.7,98,89,81,30.18,29.95,2,0,7,0.36
2013-12-16,59.5,47.0,38.1,46.2,41.1,35.4,95,81,59,30.28,30.17,0,0,7,0.00
2013-12-17,69.3,52.5,41.8,50.9,43.2,39.1,96,74,38,30.30,30.18,0,0,7,0.00
2013-12-18,64.3,52.9,42.0,44.6,39.6,31.9,93,64,31,30.32,30.21,0,0,7,0.00
2013-12-19,72.5,54.5,40.9,59.5,49.9,39.3,100,86,60,30.33,30.22,1,0,7,0.00
2013-12-20,76.4,61.6,49.3,65.1,57.5,48.5,99,87,66,30.24,30.15,0,0,7,0.01
2013-12-21,82.6,71.5,61.8,71.2,66.6,60.6,97,86,62,30.16,30.03,1,0,8,0.00
2013-12-22,83.4,74.1,68.5,72.9,70.1,67.6,98,88,69,30.15,30.07,2,0,7,0.00
2013-12-23,82.3,73.1,62.6,72.3,69.2,60.8,97,88,70,30.16,30.06,3,0,7,0.01
2013-12-24,61.9,55.0,46.3,60.2,45.0,33.2,94,71,45,30.33,30.13,1,0,7,0.01
2013-12-25,59.6,49.9,40.1,54.0,45.4,33.7,92,85,63,30.33,30.26,1,0,7,0.00
2013-12-26,56.3,52.7,49.0,51.5,49.0,45.9,94,88,81,30.30,30.20,0,0,7,0.00
2013-12-27,58.7,54.8,50.9,55.1,51.6,48.0,94,89,80,30.35,30.23,1,0,9,0.01
2013-12-28,70.2,63.8,57.4,67.4,61.0,51.9,97,91,82,30.30,30.00,1,0,7,0.02
2013-12-29,71.5,68.2,59.0,69.5,66.0,56.7,98,93,87,30.02,29.90,4,0,10,1.22
2013-12-30,66.3,56.6,48.9,56.3,50.4,47.2,95,81,58,30.21,30.02,0,0,7,0.00
2013-12-31,61.6,57.1,54.7,52.9,51.0,49.7,92,80,67,30.35,30.20,0,0,7,0.00
2014-1-2,64.0,60.1,53.0,63.4,58.2,47.7,99,93,81,29.96,29.77,7,1,20,1.28